createdAt,value
2023-09-22T00:02:18.457Z,20.93
2023-09-22T00:04:45.776Z,20.23
2023-09-22T00:07:12.872Z,20.63
2023-09-22T00:09:42.155Z,20.05
2023-09-22T00:12:09.994Z,19.92
2023-09-22T00:14:37.429Z,19.73
2023-09-22T00:17:04.429Z,19.92
2023-09-22T00:19:34.536Z,19.88
2023-09-22T00:22:02.795Z,18.60
2023-09-22T00:24:29.400Z,19.00
2023-09-22T00:26:56.332Z,19.57
2023-09-22T00:29:23.340Z,18.55
2023-09-22T00:31:52.737Z,20.10
2023-09-22T00:34:19.492Z,18.45
2023-09-22T00:36:46.841Z,17.55
2023-09-22T00:39:14.112Z,16.87
2023-09-22T00:41:40.983Z,16.50
2023-09-22T00:44:07.686Z,16.15
2023-09-22T00:46:34.618Z,14.88
2023-09-22T00:49:01.539Z,15.35
2023-09-22T00:51:30.145Z,14.77
2023-09-22T00:53:57.253Z,15.30
2023-09-22T00:56:24.180Z,14.75
2023-09-22T00:58:52.204Z,15.32
2023-09-22T01:01:21.632Z,14.07
2023-09-22T01:03:52.734Z,14.93
2023-09-22T01:06:20.283Z,14.88
2023-09-22T01:08:48.035Z,15.75
2023-09-22T01:11:14.791Z,15.35
2023-09-22T01:13:41.543Z,14.95
2023-09-22T01:16:08.476Z,13.17
2023-09-22T01:18:36.495Z,13.68
2023-09-22T01:21:07.239Z,14.25
2023-09-22T01:23:35.643Z,13.40
2023-09-22T01:26:03.666Z,14.20
2023-09-22T01:28:30.341Z,14.10
2023-09-22T01:30:56.834Z,13.90
2023-09-22T01:33:23.867Z,14.50
2023-09-22T01:35:50.871Z,13.57
2023-09-22T01:38:20.487Z,13.82
2023-09-22T01:40:47.170Z,14.27
2023-09-22T01:43:18.549Z,14.07
2023-09-22T01:45:45.548Z,14.73
2023-09-22T01:48:12.878Z,14.70
2023-09-22T01:50:41.684Z,14.63
2023-09-22T01:53:13.788Z,14.10
2023-09-22T01:55:42.521Z,14.35
2023-09-22T01:58:09.969Z,14.82
2023-09-22T02:00:37.446Z,15.32
2023-09-22T02:03:05.577Z,14.13
2023-09-22T02:05:34.713Z,14.57
2023-09-22T02:08:01.580Z,14.57
2023-09-22T02:10:28.406Z,14.50
2023-09-22T02:12:55.544Z,14.95
2023-09-22T02:15:25.966Z,13.40
2023-09-22T02:17:52.860Z,14.13
2023-09-22T02:20:19.744Z,14.38
2023-09-22T02:22:48.175Z,14.57
2023-09-22T02:25:16.295Z,14.23
2023-09-22T02:27:43.804Z,14.48
2023-09-22T02:30:11.473Z,13.03
2023-09-22T02:32:40.980Z,12.52
2023-09-22T02:35:08.941Z,13.80
2023-09-22T02:37:42.044Z,12.88
2023-09-22T02:40:10.538Z,13.88
2023-09-22T02:42:37.859Z,13.00
2023-09-22T02:45:06.057Z,12.65
2023-09-22T02:47:33.879Z,12.77
2023-09-22T02:50:01.016Z,12.48
2023-09-22T02:52:27.644Z,12.98
2023-09-22T02:54:57.474Z,12.90
2023-09-22T02:57:24.586Z,12.65
2023-09-22T02:59:56.797Z,13.52
2023-09-22T03:02:23.627Z,12.20
2023-09-22T03:04:50.560Z,12.20
2023-09-22T03:07:17.503Z,12.47
2023-09-22T03:09:44.932Z,11.38
2023-09-22T03:12:12.136Z,12.77
2023-09-22T03:14:38.642Z,11.45
2023-09-22T03:17:06.209Z,11.43
2023-09-22T03:19:34.248Z,11.57
2023-09-22T03:22:03.361Z,10.93
2023-09-22T03:24:30.619Z,12.32
2023-09-22T03:26:57.564Z,10.63
2023-09-22T03:29:24.540Z,10.50
2023-09-22T03:31:52.079Z,11.93
2023-09-22T03:34:19.928Z,10.45
2023-09-22T03:36:52.498Z,10.90
2023-09-22T03:39:22.982Z,11.07
2023-09-22T03:41:53.579Z,11.23
2023-09-22T03:44:21.097Z,10.57
2023-09-22T03:46:48.417Z,10.75
2023-09-22T03:49:15.217Z,11.20
2023-09-22T03:51:42.094Z,10.10
2023-09-22T03:54:09.458Z,11.30
2023-09-22T03:56:39.383Z,10.13
2023-09-22T03:59:06.641Z,10.35
2023-09-22T04:01:35.070Z,11.05
2023-09-22T04:04:02.600Z,10.60
2023-09-22T04:06:29.752Z,10.45
2023-09-22T04:08:57.944Z,10.97
2023-09-22T04:11:24.852Z,10.38
2023-09-22T04:13:51.472Z,10.65
2023-09-22T04:16:19.073Z,10.85
2023-09-22T04:18:47.250Z,11.35
2023-09-22T04:21:14.351Z,10.90
2023-09-22T04:23:46.756Z,10.73
2023-09-22T04:26:13.939Z,11.18
2023-09-22T04:28:40.900Z,10.95
2023-09-22T04:31:07.787Z,10.65
2023-09-22T04:33:35.345Z,11.00
2023-09-22T04:36:02.384Z,11.45
2023-09-22T04:38:29.196Z,11.50
2023-09-22T04:40:59.318Z,10.73
2023-09-22T04:43:25.916Z,9.65
2023-09-22T04:45:52.637Z,10.70
2023-09-22T04:48:19.654Z,9.32
2023-09-22T04:50:54.995Z,11.00
2023-09-22T04:53:21.748Z,10.45
2023-09-22T04:55:49.490Z,10.75
2023-09-22T04:58:17.128Z,10.40
2023-09-22T05:00:43.859Z,9.50
2023-09-22T05:03:11.772Z,9.85
2023-09-22T05:05:39.097Z,9.82
2023-09-22T05:08:06.772Z,9.27
2023-09-22T05:10:36.054Z,8.20
2023-09-22T05:13:08.285Z,8.65
2023-09-22T05:15:37.281Z,8.32
2023-09-22T05:18:06.661Z,7.65
2023-09-22T05:20:34.509Z,7.30
2023-09-22T05:23:01.097Z,7.67
2023-09-22T05:25:28.652Z,6.35
2023-09-22T05:27:57.531Z,6.30
2023-09-22T05:30:25.341Z,5.78
2023-09-22T05:32:52.738Z,6.32
2023-09-22T05:35:19.457Z,5.67
2023-09-22T05:37:46.015Z,5.80
2023-09-22T05:40:14.292Z,5.38
2023-09-22T05:42:44.163Z,5.18
2023-09-22T05:45:11.342Z,5.10
2023-09-22T05:47:41.702Z,5.03
2023-09-22T05:50:12.129Z,4.43
2023-09-22T05:52:41.650Z,4.85
2023-09-22T05:55:11.946Z,3.63
2023-09-22T05:57:38.769Z,3.90
2023-09-22T06:00:32.098Z,4.00
2023-09-22T06:02:58.804Z,3.70
2023-09-22T06:05:28.186Z,3.20
2023-09-22T06:07:57.370Z,3.10
2023-09-22T06:10:27.770Z,3.75
2023-09-22T06:13:02.048Z,3.87
2023-09-22T06:15:31.653Z,3.90
2023-09-22T06:17:58.296Z,3.90
2023-09-22T06:20:25.534Z,3.78
2023-09-22T06:22:54.534Z,4.00
2023-09-22T06:25:21.917Z,3.13
2023-09-22T06:27:53.307Z,3.28
2023-09-22T06:30:20.639Z,3.00
2023-09-22T06:32:47.588Z,3.90
2023-09-22T06:35:14.566Z,3.22
2023-09-22T06:37:42.606Z,3.33
2023-09-22T06:40:12.990Z,3.35
2023-09-22T06:42:46.302Z,3.67
2023-09-22T06:45:14.098Z,3.80
2023-09-22T06:47:45.083Z,3.70
2023-09-22T06:50:13.539Z,3.67
2023-09-22T06:52:41.824Z,3.72
2023-09-22T06:55:13.546Z,3.88
2023-09-22T06:57:43.905Z,3.72
2023-09-22T07:00:20.363Z,3.95
2023-09-22T07:02:50.038Z,3.40
2023-09-22T07:05:17.933Z,3.78
2023-09-22T07:07:44.552Z,3.58
2023-09-22T07:10:11.756Z,3.70
2023-09-22T07:12:40.418Z,4.05
2023-09-22T07:15:08.337Z,3.97
2023-09-22T07:17:35.987Z,3.75
2023-09-22T07:20:10.254Z,4.40
2023-09-22T07:22:39.425Z,4.13
2023-09-22T07:25:07.435Z,4.78
2023-09-22T07:27:34.319Z,4.63
2023-09-22T07:30:01.285Z,4.35
2023-09-22T07:32:28.142Z,4.10
2023-09-22T07:34:57.935Z,4.20
2023-09-22T07:37:24.702Z,3.70
2023-09-22T07:39:51.617Z,3.87
2023-09-22T07:42:18.189Z,3.97
2023-09-22T07:44:44.816Z,4.50
2023-09-22T07:47:11.814Z,4.03
2023-09-22T07:49:39.261Z,4.68
2023-09-22T07:52:11.666Z,5.20
2023-09-22T07:54:39.139Z,4.95
2023-09-22T07:57:11.042Z,5.50
2023-09-22T07:59:37.717Z,4.95
2023-09-22T08:02:04.715Z,5.82
2023-09-22T08:04:31.898Z,5.40
2023-09-22T08:07:01.638Z,5.72
2023-09-22T08:09:29.617Z,5.45
2023-09-22T08:11:56.439Z,6.20
2023-09-22T08:14:31.320Z,5.75
2023-09-22T08:17:09.075Z,4.87
2023-09-22T08:19:36.093Z,5.43
2023-09-22T08:22:02.788Z,5.13
2023-09-22T08:24:29.396Z,4.80
2023-09-22T08:26:59.268Z,4.80
2023-09-22T08:29:27.231Z,4.10
2023-09-22T08:31:55.561Z,4.32
2023-09-22T08:34:22.194Z,4.70
2023-09-22T08:36:48.826Z,4.50
2023-09-22T08:39:17.074Z,4.88
2023-09-22T08:41:44.910Z,5.00
2023-09-22T08:44:11.645Z,5.05
2023-09-22T08:46:42.814Z,5.07
2023-09-22T08:49:11.538Z,5.18
2023-09-22T08:51:40.587Z,5.05
2023-09-22T08:54:10.607Z,4.80
2023-09-22T08:56:39.175Z,4.70
2023-09-22T08:59:08.384Z,5.30
2023-09-22T09:01:35.450Z,5.10
2023-09-22T09:04:32.738Z,5.60
2023-09-22T09:06:59.462Z,5.57
2023-09-22T09:09:27.790Z,5.60
2023-09-22T09:12:01.994Z,5.30
2023-09-22T09:14:32.688Z,4.72
2023-09-22T09:16:59.466Z,4.38
2023-09-22T09:19:27.607Z,4.53
2023-09-22T09:22:10.004Z,5.10
2023-09-22T09:24:39.057Z,4.10
2023-09-22T09:27:19.249Z,4.03
2023-09-22T09:29:47.858Z,4.18
2023-09-22T09:32:34.907Z,3.97
2023-09-22T09:35:02.336Z,4.90
2023-09-22T09:37:29.689Z,4.88
2023-09-22T09:39:59.819Z,4.47
2023-09-22T09:42:27.949Z,4.75
2023-09-22T09:44:59.443Z,4.20
2023-09-22T09:47:30.634Z,4.38
2023-09-22T09:50:01.129Z,3.80
2023-09-22T09:52:58.241Z,4.28
2023-09-22T09:55:28.535Z,4.50
2023-09-22T09:57:57.444Z,3.80
2023-09-22T10:00:25.710Z,4.10
2023-09-22T10:02:54.110Z,4.22
2023-09-22T10:05:23.230Z,3.45
2023-09-22T10:07:58.180Z,2.97
2023-09-22T10:10:27.175Z,3.80
2023-09-22T10:12:54.139Z,3.20
2023-09-22T10:15:56.458Z,3.20
2023-09-22T10:18:24.706Z,3.63
2023-09-22T10:20:51.606Z,3.25
2023-09-22T10:23:26.670Z,3.50
2023-09-22T10:26:17.274Z,3.25
2023-09-22T10:28:44.968Z,3.20
2023-09-22T10:31:11.651Z,3.03
2023-09-22T10:33:39.283Z,3.05
2023-09-22T10:36:06.718Z,3.10
2023-09-22T10:39:03.658Z,2.80
2023-09-22T10:41:30.239Z,2.83
2023-09-22T10:44:00.909Z,3.45
2023-09-22T10:46:27.810Z,3.35
2023-09-22T10:48:54.894Z,3.57
2023-09-22T10:51:24.134Z,3.05
2023-09-22T10:54:03.707Z,3.50
2023-09-22T10:56:39.912Z,3.28
2023-09-22T10:59:06.827Z,3.58
2023-09-22T11:01:45.383Z,2.70
2023-09-22T11:04:12.884Z,3.13
2023-09-22T11:06:47.927Z,3.15
2023-09-22T11:09:16.000Z,3.03
2023-09-22T11:11:46.821Z,3.03
2023-09-22T11:14:14.501Z,3.20
2023-09-22T11:16:48.843Z,3.55
2023-09-22T11:19:15.814Z,3.30
2023-09-22T11:21:45.778Z,3.30
2023-09-22T11:24:12.554Z,3.53
2023-09-22T11:26:46.500Z,3.40
2023-09-22T11:29:16.360Z,3.17
2023-09-22T11:31:55.279Z,3.60
2023-09-22T11:34:24.148Z,3.10
2023-09-22T11:36:53.079Z,3.83
2023-09-22T11:39:35.434Z,3.40
2023-09-22T11:42:05.303Z,3.05
2023-09-22T11:44:32.591Z,4.35
2023-09-22T11:47:00.906Z,4.10
2023-09-22T11:49:38.004Z,3.97
2023-09-22T11:52:11.335Z,3.80
2023-09-22T11:54:39.090Z,4.10
2023-09-22T11:57:06.440Z,4.05
2023-09-22T11:59:36.442Z,3.97
2023-09-22T12:02:07.391Z,3.90
2023-09-22T12:04:39.773Z,3.47
2023-09-22T12:07:07.485Z,3.60
2023-09-22T12:09:34.370Z,3.70
2023-09-22T12:12:00.858Z,3.60
2023-09-22T12:14:28.070Z,3.80
2023-09-22T12:16:55.526Z,3.53
2023-09-22T12:19:22.960Z,3.55
2023-09-22T12:21:50.073Z,3.65
2023-09-22T12:24:16.801Z,3.10
2023-09-22T12:26:43.521Z,3.75
2023-09-22T12:29:11.294Z,3.90
2023-09-22T12:31:39.056Z,3.33
2023-09-22T12:34:05.981Z,4.20
2023-09-22T12:36:33.975Z,3.55
2023-09-22T12:39:00.625Z,3.67
2023-09-22T12:41:27.230Z,3.60
2023-09-22T12:43:54.229Z,3.17
2023-09-22T12:46:21.821Z,3.28
2023-09-22T12:48:48.866Z,3.08
2023-09-22T12:51:15.602Z,3.63
2023-09-22T12:53:42.616Z,2.90
2023-09-22T12:56:11.562Z,3.42
2023-09-22T12:58:41.693Z,3.40
2023-09-22T13:01:13.293Z,3.38
2023-09-22T13:03:41.074Z,3.40
2023-09-22T13:06:09.185Z,3.20
2023-09-22T13:08:38.353Z,2.95
2023-09-22T13:11:05.996Z,3.40
2023-09-22T13:13:32.937Z,4.05
2023-09-22T13:16:00.089Z,3.42
2023-09-22T13:18:27.983Z,3.13
2023-09-22T13:20:55.853Z,3.40
2023-09-22T13:23:22.697Z,3.22
2023-09-22T13:28:31.398Z,3.53
2023-09-22T13:30:58.085Z,3.33
2023-09-22T13:33:27.385Z,3.60
2023-09-22T13:35:54.179Z,3.88
2023-09-22T13:38:20.953Z,4.20
2023-09-22T13:40:49.260Z,4.00
2023-09-22T13:43:18.691Z,4.43
2023-09-22T13:45:46.009Z,4.15
2023-09-22T13:48:13.315Z,5.28
2023-09-22T13:50:41.968Z,4.45
2023-09-22T13:53:09.946Z,4.28
2023-09-22T13:55:40.633Z,4.67
2023-09-22T13:58:07.975Z,4.50
2023-09-22T14:00:34.971Z,4.75
2023-09-22T14:03:02.546Z,4.63
2023-09-22T14:05:32.684Z,5.15
2023-09-22T14:08:00.173Z,4.50
2023-09-22T14:10:27.110Z,4.78
2023-09-22T14:12:53.832Z,4.30
2023-09-22T14:15:23.239Z,4.53
2023-09-22T14:17:50.576Z,4.90
2023-09-22T14:20:18.740Z,4.60
2023-09-22T14:22:45.877Z,3.38
2023-09-22T14:25:13.189Z,3.88
2023-09-22T14:27:44.032Z,3.80
2023-09-22T14:30:13.042Z,4.03
2023-09-22T14:32:42.879Z,4.03
2023-09-22T14:35:10.989Z,3.45
2023-09-22T14:37:37.919Z,3.47
2023-09-22T14:40:06.820Z,3.35
2023-09-22T14:42:33.807Z,4.28
2023-09-22T14:45:00.424Z,4.17
2023-09-22T14:47:27.329Z,4.03
2023-09-22T14:49:54.152Z,4.20
2023-09-22T14:52:21.493Z,3.83
2023-09-22T14:54:48.489Z,4.22
2023-09-22T14:57:15.536Z,4.93
2023-09-22T14:59:42.436Z,6.63
2023-09-22T15:02:09.571Z,4.30
2023-09-22T15:04:36.960Z,4.88
2023-09-22T15:07:04.126Z,4.05
2023-09-22T15:09:31.752Z,4.33
2023-09-22T15:11:58.874Z,4.15
2023-09-22T15:14:28.638Z,3.78
2023-09-22T15:16:57.125Z,3.25
2023-09-22T15:19:27.497Z,3.42
2023-09-22T15:21:54.104Z,3.00
2023-09-22T15:24:20.981Z,3.55
2023-09-22T15:26:48.374Z,4.00
2023-09-22T15:29:15.274Z,3.67
2023-09-22T15:31:45.238Z,3.45
2023-09-22T15:34:13.309Z,3.50
2023-09-22T15:36:40.978Z,2.72
2023-09-22T15:39:07.826Z,2.70
2023-09-22T15:41:36.375Z,3.70
2023-09-22T15:44:03.676Z,2.75
2023-09-22T15:46:30.695Z,2.80
2023-09-22T15:48:58.307Z,2.67
2023-09-22T15:51:25.266Z,2.72
2023-09-22T15:53:52.787Z,3.00
2023-09-22T15:56:19.646Z,3.30
2023-09-22T15:58:46.604Z,2.43
2023-09-22T16:01:13.782Z,2.35
2023-09-22T16:03:43.622Z,2.88
2023-09-22T16:06:11.652Z,2.70
2023-09-22T16:08:40.214Z,3.05
2023-09-22T16:11:10.045Z,2.60
2023-09-22T16:13:37.948Z,2.65
2023-09-22T16:16:05.103Z,2.10
2023-09-22T16:18:32.857Z,2.30
2023-09-22T16:21:02.659Z,1.85
2023-09-22T16:23:29.265Z,2.00
2023-09-22T16:26:02.300Z,1.88
2023-09-22T16:28:29.239Z,2.30
2023-09-22T16:30:56.335Z,2.40
2023-09-22T16:33:23.097Z,2.78
2023-09-22T16:35:49.643Z,2.37
2023-09-22T16:38:17.372Z,2.35
2023-09-22T16:40:44.490Z,2.42
2023-09-22T16:43:12.108Z,2.70
2023-09-22T16:45:39.530Z,2.67
2023-09-22T16:48:09.644Z,3.40
2023-09-22T16:50:36.922Z,4.70
2023-09-22T16:53:03.872Z,3.42
2023-09-22T16:55:30.826Z,3.22
2023-09-22T16:57:57.749Z,3.42
2023-09-22T17:00:24.719Z,3.33
2023-09-22T17:02:55.584Z,3.70
2023-09-22T17:05:23.313Z,3.72
2023-09-22T17:07:50.253Z,3.38
2023-09-22T17:10:17.797Z,3.70
2023-09-22T17:12:44.960Z,3.73
2023-09-22T17:15:12.339Z,3.55
2023-09-22T17:17:40.682Z,3.95
2023-09-22T17:20:08.437Z,3.28
2023-09-22T17:22:35.680Z,3.90
2023-09-22T17:25:02.958Z,3.67
2023-09-22T17:27:29.684Z,4.00
2023-09-22T17:29:56.319Z,3.60
2023-09-22T17:32:24.027Z,3.60
2023-09-22T17:34:53.856Z,4.88
2023-09-22T17:37:20.886Z,3.50
2023-09-22T17:39:48.216Z,3.55
2023-09-22T17:42:16.973Z,3.95
2023-09-22T17:44:43.834Z,3.60
2023-09-22T17:47:11.937Z,3.45
2023-09-22T17:49:38.782Z,2.80
2023-09-22T17:52:06.083Z,2.80
2023-09-22T17:54:32.857Z,3.20
2023-09-22T17:57:03.562Z,3.03
2023-09-22T17:59:30.665Z,3.90
2023-09-22T18:01:58.049Z,3.53
2023-09-22T18:04:24.963Z,4.07
2023-09-22T18:06:52.060Z,3.70
2023-09-22T18:09:19.607Z,3.70
2023-09-22T18:11:47.499Z,3.40
2023-09-22T18:14:15.606Z,2.60
2023-09-22T18:16:43.321Z,2.60
2023-09-22T18:19:10.072Z,3.05
2023-09-22T18:21:36.938Z,2.22
2023-09-22T18:24:03.858Z,2.60
2023-09-22T18:26:32.757Z,2.00
2023-09-22T18:29:02.245Z,2.50
2023-09-22T18:31:30.301Z,2.40
2023-09-22T18:33:59.278Z,2.30
2023-09-22T18:36:26.401Z,2.40
2023-09-22T18:38:53.032Z,2.63
2023-09-22T18:41:19.762Z,2.35
2023-09-22T18:43:46.367Z,2.58
2023-09-22T18:46:16.637Z,2.40
2023-09-22T18:48:45.199Z,2.85
2023-09-22T18:51:13.621Z,2.77
2023-09-22T18:53:42.209Z,2.22
2023-09-22T18:56:09.419Z,3.08
2023-09-22T18:58:37.995Z,3.22
2023-09-22T19:01:05.383Z,3.67
2023-09-22T19:03:33.608Z,3.23
2023-09-22T19:06:02.615Z,2.85
2023-09-22T19:08:29.392Z,2.67
2023-09-22T19:10:56.371Z,2.80
2023-09-22T19:13:22.913Z,3.38
2023-09-22T19:15:51.095Z,3.03
2023-09-22T19:18:20.878Z,2.70
2023-09-22T19:20:47.667Z,3.47
2023-09-22T19:23:15.177Z,3.00
2023-09-22T19:25:44.828Z,3.55
2023-09-22T19:28:14.701Z,3.30
2023-09-22T19:30:43.092Z,2.60
2023-09-22T19:33:10.004Z,3.28
2023-09-22T19:35:41.394Z,2.97
2023-09-22T19:38:08.870Z,2.90
2023-09-22T19:40:38.497Z,2.97
2023-09-22T19:43:05.685Z,3.13
2023-09-22T19:45:32.326Z,3.42
2023-09-22T19:47:59.120Z,3.65
2023-09-22T19:50:25.914Z,4.57
2023-09-22T19:52:52.635Z,4.57
2023-09-22T19:55:19.627Z,5.05
2023-09-22T19:57:46.269Z,4.88
2023-09-22T20:00:15.496Z,5.03
2023-09-22T20:02:44.124Z,5.60
2023-09-22T20:05:11.504Z,5.70
2023-09-22T20:07:39.447Z,6.03
2023-09-22T20:10:07.839Z,5.60
2023-09-22T20:12:35.425Z,5.60
2023-09-22T20:15:05.748Z,4.93
2023-09-22T20:17:32.529Z,5.43
2023-09-22T20:19:59.425Z,5.30
2023-09-22T20:22:29.092Z,5.50
2023-09-22T20:24:55.649Z,6.10
2023-09-22T20:27:25.818Z,5.20
2023-09-22T20:29:54.105Z,4.67
2023-09-22T20:32:27.404Z,2.78
2023-09-22T20:34:55.586Z,2.10
2023-09-22T20:37:22.751Z,1.42
2023-09-22T20:39:55.807Z,1.95
2023-09-22T20:42:22.980Z,1.20
2023-09-22T20:44:52.394Z,1.38
2023-09-22T20:47:21.294Z,1.55
2023-09-22T20:49:49.476Z,1.48
2023-09-22T20:52:16.586Z,1.52
2023-09-22T20:54:44.604Z,1.87
2023-09-22T20:57:12.811Z,1.70
2023-09-22T20:59:40.458Z,2.00
2023-09-22T21:02:08.776Z,1.75
2023-09-22T21:04:35.599Z,1.60
2023-09-22T21:07:03.698Z,1.70
2023-09-22T21:09:30.751Z,1.80
2023-09-22T21:11:58.224Z,2.00
2023-09-22T21:14:25.176Z,2.35
2023-09-22T21:16:52.195Z,1.70
2023-09-22T21:19:19.136Z,2.13
2023-09-22T21:21:45.969Z,1.90
2023-09-22T21:24:13.483Z,1.88
2023-09-22T21:26:40.135Z,2.25
2023-09-22T21:29:08.527Z,2.20
2023-09-22T21:31:37.978Z,2.07
2023-09-22T21:34:06.152Z,1.90
2023-09-22T21:36:32.984Z,2.33
2023-09-22T21:39:00.133Z,5.32
2023-09-22T21:41:27.894Z,5.18
2023-09-22T21:43:56.143Z,8.00
2023-09-22T21:46:23.490Z,9.93
2023-09-22T21:48:50.679Z,12.30
2023-09-22T21:51:20.191Z,13.75
2023-09-22T21:53:47.474Z,14.48
2023-09-22T21:56:14.749Z,13.50
2023-09-22T21:58:41.744Z,12.20
2023-09-22T22:01:11.175Z,12.68
2023-09-22T22:03:39.574Z,11.48
2023-09-22T22:06:14.846Z,12.75
2023-09-22T22:08:45.409Z,11.67
2023-09-22T22:11:12.745Z,9.50
2023-09-22T22:13:44.324Z,9.15
2023-09-22T22:16:12.732Z,7.57
2023-09-22T22:18:42.776Z,8.23
2023-09-22T22:21:10.823Z,9.13
2023-09-22T22:23:42.035Z,9.88
2023-09-22T22:26:11.077Z,11.00
2023-09-22T22:28:40.617Z,10.73
2023-09-22T22:31:08.420Z,12.73
2023-09-22T22:33:39.464Z,13.40
2023-09-22T22:36:07.609Z,14.10
2023-09-22T22:38:34.939Z,16.35
2023-09-22T22:41:01.707Z,16.92
2023-09-22T22:43:31.641Z,17.77
2023-09-22T22:45:59.615Z,19.00
2023-09-22T22:48:27.924Z,19.77
2023-09-22T22:50:55.836Z,21.83
2023-09-22T22:53:22.525Z,21.05
2023-09-22T22:55:49.883Z,23.85
2023-09-22T22:58:21.062Z,23.57
2023-09-22T23:00:50.004Z,24.70
2023-09-22T23:03:20.753Z,24.92
2023-09-22T23:05:51.658Z,25.98
2023-09-22T23:08:18.346Z,25.98
2023-09-22T23:11:01.013Z,22.90
2023-09-22T23:13:36.066Z,24.63
2023-09-22T23:16:06.033Z,25.13
2023-09-22T23:18:37.265Z,24.45
2023-09-22T23:21:05.417Z,22.20
2023-09-22T23:23:32.361Z,22.87
2023-09-22T23:26:00.465Z,22.23
2023-09-22T23:28:27.865Z,21.70
2023-09-22T23:30:54.899Z,19.17
2023-09-22T23:33:25.146Z,20.02
2023-09-22T23:35:52.555Z,21.17
2023-09-22T23:38:23.208Z,19.67
2023-09-22T23:40:53.154Z,19.35
2023-09-22T23:43:25.548Z,19.38
2023-09-22T23:45:58.153Z,19.42
2023-09-22T23:48:25.235Z,17.73
2023-09-22T23:50:58.664Z,17.10
2023-09-22T23:53:26.802Z,17.67
2023-09-22T23:55:54.979Z,16.67
2023-09-22T23:58:21.951Z,18.02
